createdAt,value
2023-03-20T00:00:41.494Z,39.48
2023-03-20T00:01:41.479Z,39.16
2023-03-20T00:02:41.462Z,38.51
2023-03-20T00:03:41.480Z,38.67
2023-03-20T00:04:41.497Z,38.03
2023-03-20T00:05:41.471Z,38.03
2023-03-20T00:06:41.433Z,38.51
2023-03-20T00:07:41.415Z,38.35
2023-03-20T00:08:41.409Z,37.71
2023-03-20T00:09:41.399Z,37.22
2023-03-20T00:10:41.420Z,38.03
2023-03-20T00:11:41.389Z,38.51
2023-03-20T00:12:41.377Z,38.19
2023-03-20T00:13:41.407Z,38.19
2023-03-20T00:14:41.358Z,37.87
2023-03-20T00:15:41.421Z,37.87
2023-03-20T00:16:41.352Z,38.19
2023-03-20T00:17:41.334Z,40.12
2023-03-20T00:18:41.330Z,38.83
2023-03-20T00:19:41.316Z,38.19
2023-03-20T00:20:41.330Z,39.48
2023-03-20T00:21:41.309Z,38.51
2023-03-20T00:22:41.290Z,38.35
2023-03-20T00:23:41.284Z,38.19
2023-03-20T00:24:41.278Z,38.35
2023-03-20T00:25:41.319Z,38.99
2023-03-20T00:26:41.266Z,38.35
2023-03-20T00:27:41.252Z,38.19
2023-03-20T00:28:41.257Z,38.19
2023-03-20T00:29:41.242Z,38.67
2023-03-20T00:30:41.257Z,38.51
2023-03-20T00:31:41.256Z,38.19
2023-03-20T00:32:41.238Z,37.38
2023-03-20T00:33:41.206Z,37.71
2023-03-20T00:34:41.362Z,38.03
2023-03-20T00:35:41.246Z,38.03
2023-03-20T00:36:41.213Z,38.19
2023-03-20T00:37:41.176Z,37.54
2023-03-20T00:38:41.176Z,38.03
2023-03-20T00:39:41.184Z,38.03
2023-03-20T00:40:41.215Z,37.71
2023-03-20T00:41:41.158Z,37.87
2023-03-20T00:42:41.153Z,37.87
2023-03-20T00:43:41.143Z,36.42
2023-03-20T00:44:42.514Z,38.19
2023-03-20T00:45:42.152Z,38.19
2023-03-20T00:46:41.183Z,37.71
2023-03-20T00:47:41.103Z,37.38
2023-03-20T00:48:41.094Z,37.38
2023-03-20T00:49:41.091Z,37.87
2023-03-20T00:50:41.116Z,40.44
2023-03-20T00:51:41.082Z,39.16
2023-03-20T00:52:41.067Z,43.18
2023-03-20T00:53:41.062Z,52.69
2023-03-20T00:54:41.068Z,52.37
2023-03-20T00:55:41.069Z,48.66
2023-03-20T00:56:41.049Z,54.14
2023-03-20T00:57:41.053Z,54.46
2023-03-20T00:58:41.021Z,54.46
2023-03-20T00:59:41.002Z,54.79
2023-03-20T01:00:41.097Z,55.11
2023-03-20T01:01:41.031Z,54.46
2023-03-20T01:02:41.004Z,54.79
2023-03-20T01:03:41.015Z,54.62
2023-03-20T01:04:40.962Z,54.30
2023-03-20T01:05:41.014Z,35.13
2023-03-20T01:06:40.973Z,33.19
2023-03-20T01:07:40.964Z,33.68
2023-03-20T01:08:40.948Z,34.80
2023-03-20T01:09:40.930Z,34.48
2023-03-20T01:10:40.947Z,35.61
2023-03-20T01:11:40.910Z,37.22
2023-03-20T01:12:40.902Z,37.71
2023-03-20T01:13:40.896Z,37.06
2023-03-20T01:14:40.878Z,35.61
2023-03-20T01:15:40.935Z,35.77
2023-03-20T01:16:40.980Z,36.42
2023-03-20T01:17:40.869Z,36.74
2023-03-20T01:18:40.849Z,36.42
2023-03-20T01:19:40.852Z,38.35
2023-03-20T01:20:40.842Z,36.25
2023-03-20T01:21:40.876Z,35.61
2023-03-20T01:22:40.821Z,34.48
2023-03-20T01:23:40.817Z,37.87
2023-03-20T01:24:40.867Z,38.35
2023-03-20T01:25:41.796Z,38.51
2023-03-20T01:26:40.819Z,38.51
2023-03-20T01:27:40.821Z,38.51
2023-03-20T01:28:40.780Z,43.18
2023-03-20T01:29:40.789Z,38.51
2023-03-20T01:30:40.775Z,38.03
2023-03-20T01:31:40.792Z,38.03
2023-03-20T01:32:40.777Z,38.51
2023-03-20T01:33:40.755Z,38.03
2023-03-20T01:34:40.732Z,38.35
2023-03-20T01:35:41.774Z,38.83
2023-03-20T01:36:40.832Z,37.87
2023-03-20T01:37:40.729Z,38.19
2023-03-20T01:38:40.703Z,38.67
2023-03-20T01:39:40.696Z,38.03
2023-03-20T01:40:40.688Z,37.71
2023-03-20T01:41:40.697Z,39.32
2023-03-20T01:42:40.666Z,38.19
2023-03-20T01:43:40.689Z,37.54
2023-03-20T01:44:40.654Z,38.99
2023-03-20T01:45:40.679Z,38.03
2023-03-20T01:46:40.666Z,37.06
2023-03-20T01:47:40.621Z,38.03
2023-03-20T01:48:41.636Z,39.80
2023-03-20T01:49:40.634Z,39.16
2023-03-20T01:50:40.612Z,38.83
2023-03-20T01:51:40.644Z,39.64
2023-03-20T01:52:40.607Z,38.67
2023-03-20T01:53:40.591Z,39.16
2023-03-20T01:54:40.581Z,38.35
2023-03-20T01:55:40.578Z,38.03
2023-03-20T01:56:40.600Z,38.35
2023-03-20T01:57:40.567Z,38.83
2023-03-20T01:58:40.564Z,38.83
2023-03-20T01:59:40.557Z,38.67
2023-03-20T02:00:40.536Z,39.64
2023-03-20T02:01:40.569Z,38.35
2023-03-20T02:02:41.532Z,38.35
2023-03-20T02:03:40.521Z,38.67
2023-03-20T02:04:40.538Z,37.22
2023-03-20T02:05:40.495Z,37.54
2023-03-20T02:06:40.519Z,38.51
2023-03-20T02:07:40.477Z,38.83
2023-03-20T02:08:40.470Z,38.19
2023-03-20T02:09:40.476Z,38.19
2023-03-20T02:10:40.462Z,38.51
2023-03-20T02:11:40.480Z,39.32
2023-03-20T02:12:40.441Z,39.80
2023-03-20T02:13:40.435Z,39.16
2023-03-20T02:14:40.427Z,38.67
2023-03-20T02:15:40.432Z,38.19
2023-03-20T02:16:40.485Z,38.51
2023-03-20T02:17:40.405Z,39.80
2023-03-20T02:18:40.466Z,39.32
2023-03-20T02:19:40.384Z,38.83
2023-03-20T02:20:40.393Z,38.83
2023-03-20T02:21:40.386Z,38.67
2023-03-20T02:22:40.368Z,38.83
2023-03-20T02:23:40.400Z,41.41
2023-03-20T02:24:40.358Z,39.80
2023-03-20T02:25:40.391Z,39.64
2023-03-20T02:26:40.352Z,38.67
2023-03-20T02:27:40.329Z,38.99
2023-03-20T02:28:40.343Z,39.96
2023-03-20T02:29:40.306Z,38.99
2023-03-20T02:30:40.364Z,40.28
2023-03-20T02:31:40.302Z,38.51
2023-03-20T02:32:40.304Z,39.32
2023-03-20T02:33:40.292Z,39.48
2023-03-20T02:34:40.293Z,40.93
2023-03-20T02:35:40.279Z,39.80
2023-03-20T02:36:40.255Z,41.89
2023-03-20T02:37:40.267Z,46.08
2023-03-20T02:38:40.252Z,38.67
2023-03-20T02:39:40.260Z,39.48
2023-03-20T02:40:40.222Z,38.99
2023-03-20T02:41:40.291Z,38.83
2023-03-20T02:42:40.212Z,38.67
2023-03-20T02:43:40.206Z,38.99
2023-03-20T02:44:40.226Z,38.83
2023-03-20T02:45:40.185Z,38.67
2023-03-20T02:46:40.170Z,39.64
2023-03-20T02:47:41.171Z,40.61
2023-03-20T02:48:40.170Z,49.79
2023-03-20T02:49:40.176Z,51.72
2023-03-20T02:50:40.155Z,51.40
2023-03-20T02:51:40.137Z,54.30
2023-03-20T02:52:40.140Z,54.62
2023-03-20T02:53:40.122Z,54.95
2023-03-20T02:54:40.151Z,54.62
2023-03-20T02:55:40.114Z,55.27
2023-03-20T02:56:40.108Z,54.62
2023-03-20T02:57:40.096Z,54.62
2023-03-20T02:58:40.084Z,54.79
2023-03-20T02:59:40.114Z,54.62
2023-03-20T03:00:40.090Z,54.46
2023-03-20T03:01:40.101Z,41.09
2023-03-20T03:02:40.107Z,38.35
2023-03-20T03:03:40.052Z,34.32
2023-03-20T03:04:40.129Z,35.61
2023-03-20T03:05:40.031Z,40.93
2023-03-20T03:06:40.020Z,40.28
2023-03-20T03:07:40.009Z,36.58
2023-03-20T03:08:41.022Z,37.06
2023-03-20T03:09:39.993Z,38.35
2023-03-20T03:10:40.019Z,37.22
2023-03-20T03:11:39.982Z,38.19
2023-03-20T03:12:39.983Z,38.51
2023-03-20T03:13:40.015Z,39.96
2023-03-20T03:14:39.950Z,39.16
2023-03-20T03:15:40.061Z,42.86
2023-03-20T03:16:39.940Z,40.12
2023-03-20T03:17:39.972Z,39.96
2023-03-20T03:18:39.924Z,38.19
2023-03-20T03:19:39.917Z,38.99
2023-03-20T03:20:39.939Z,39.16
2023-03-20T03:21:39.922Z,37.71
2023-03-20T03:22:39.894Z,37.71
2023-03-20T03:23:40.894Z,38.35
2023-03-20T03:24:41.563Z,37.54
2023-03-20T03:25:40.930Z,38.99
2023-03-20T03:26:39.873Z,37.71
2023-03-20T03:27:39.864Z,37.71
2023-03-20T03:28:39.843Z,38.67
2023-03-20T03:29:39.846Z,39.80
2023-03-20T03:30:39.859Z,38.19
2023-03-20T03:31:39.832Z,39.16
2023-03-20T03:32:39.851Z,38.03
2023-03-20T03:33:39.809Z,37.87
2023-03-20T03:34:39.802Z,38.51
2023-03-20T03:35:39.862Z,38.19
2023-03-20T03:36:39.787Z,38.19
2023-03-20T03:37:39.772Z,37.87
2023-03-20T03:38:39.789Z,39.32
2023-03-20T03:39:39.772Z,39.32
2023-03-20T03:40:39.762Z,40.77
2023-03-20T03:41:39.778Z,38.99
2023-03-20T03:42:40.702Z,43.02
2023-03-20T03:43:39.727Z,43.67
2023-03-20T03:44:39.725Z,40.93
2023-03-20T03:45:39.728Z,39.32
2023-03-20T03:46:39.809Z,46.25
2023-03-20T03:47:39.749Z,44.63
2023-03-20T03:48:39.702Z,39.80
2023-03-20T03:49:39.684Z,41.89
2023-03-20T03:50:39.690Z,40.77
2023-03-20T03:51:39.715Z,39.96
2023-03-20T03:52:39.666Z,43.02
2023-03-20T03:53:39.661Z,39.96
2023-03-20T03:54:39.655Z,39.80
2023-03-20T03:55:39.877Z,41.89
2023-03-20T03:56:39.658Z,39.48
2023-03-20T03:57:39.627Z,38.99
2023-03-20T03:58:39.613Z,39.48
2023-03-20T03:59:39.629Z,39.96
2023-03-20T04:00:39.607Z,40.28
2023-03-20T04:01:39.650Z,40.12
2023-03-20T04:02:39.583Z,41.73
2023-03-20T04:03:39.583Z,45.28
2023-03-20T04:04:39.597Z,49.63
2023-03-20T04:05:39.559Z,39.80
2023-03-20T04:06:39.714Z,41.25
2023-03-20T04:07:39.588Z,41.57
2023-03-20T04:08:39.547Z,46.25
2023-03-20T04:09:39.533Z,39.64
2023-03-20T04:10:39.533Z,39.96
2023-03-20T04:11:39.556Z,46.25
2023-03-20T04:12:39.516Z,39.64
2023-03-20T04:13:39.530Z,42.06
2023-03-20T04:14:39.494Z,41.41
2023-03-20T04:15:39.515Z,39.96
2023-03-20T04:16:39.678Z,39.64
2023-03-20T04:17:39.491Z,39.32
2023-03-20T04:18:39.487Z,39.80
2023-03-20T04:19:39.465Z,39.96
2023-03-20T04:20:39.461Z,44.96
2023-03-20T04:21:39.471Z,42.06
2023-03-20T04:22:39.471Z,41.41
2023-03-20T04:23:39.430Z,40.44
2023-03-20T04:24:39.450Z,44.47
2023-03-20T04:25:39.421Z,45.12
2023-03-20T04:26:39.410Z,43.83
2023-03-20T04:27:39.438Z,39.64
2023-03-20T04:28:39.392Z,42.22
2023-03-20T04:29:39.448Z,41.89
2023-03-20T04:30:40.375Z,48.02
2023-03-20T04:31:39.459Z,45.44
2023-03-20T04:32:39.474Z,46.89
2023-03-20T04:33:39.395Z,42.22
2023-03-20T04:34:39.359Z,43.18
2023-03-20T04:35:39.639Z,43.83
2023-03-20T04:36:39.353Z,49.95
2023-03-20T04:37:39.374Z,47.21
2023-03-20T04:38:39.314Z,44.63
2023-03-20T04:39:39.300Z,45.12
2023-03-20T04:40:39.302Z,43.83
2023-03-20T04:41:39.288Z,42.54
2023-03-20T04:42:39.284Z,47.53
2023-03-20T04:43:39.334Z,42.54
2023-03-20T04:44:39.265Z,45.44
2023-03-20T04:45:39.501Z,42.54
2023-03-20T04:46:39.258Z,51.40
2023-03-20T04:47:39.268Z,45.12
2023-03-20T04:48:39.272Z,42.70
2023-03-20T04:49:39.231Z,47.70
2023-03-20T04:50:39.221Z,47.05
2023-03-20T04:51:39.223Z,50.11
2023-03-20T04:52:39.210Z,54.30
2023-03-20T04:53:39.233Z,47.37
2023-03-20T04:54:39.206Z,47.21
2023-03-20T04:55:39.207Z,46.08
2023-03-20T04:56:39.170Z,43.83
2023-03-20T04:57:39.175Z,43.34
2023-03-20T04:58:39.198Z,45.60
2023-03-20T04:59:39.176Z,50.11
2023-03-20T05:00:39.145Z,44.63
2023-03-20T05:01:39.140Z,49.15
2023-03-20T05:02:39.178Z,45.60
2023-03-20T05:03:39.274Z,45.60
2023-03-20T05:04:39.126Z,47.05
2023-03-20T05:05:39.124Z,48.66
2023-03-20T05:06:39.164Z,48.66
2023-03-20T05:07:39.107Z,45.60
2023-03-20T05:08:39.107Z,45.60
2023-03-20T05:09:39.076Z,44.63
2023-03-20T05:10:39.059Z,47.53
2023-03-20T05:11:39.089Z,49.63
2023-03-20T05:12:39.055Z,44.63
2023-03-20T05:13:39.066Z,46.57
2023-03-20T05:14:39.049Z,47.05
2023-03-20T05:15:39.025Z,43.18
2023-03-20T05:16:39.034Z,43.34
2023-03-20T05:17:39.011Z,50.92
2023-03-20T05:18:39.044Z,44.96
2023-03-20T05:19:38.989Z,42.54
2023-03-20T05:20:38.982Z,49.79
2023-03-20T05:21:38.979Z,47.05
2023-03-20T05:22:38.974Z,49.31
2023-03-20T05:23:39.001Z,45.12
2023-03-20T05:24:38.987Z,44.96
2023-03-20T05:25:38.949Z,46.25
2023-03-20T05:26:38.935Z,51.88
2023-03-20T05:27:38.926Z,45.60
2023-03-20T05:28:38.963Z,51.88
2023-03-20T05:29:38.913Z,46.08
2023-03-20T05:30:38.935Z,44.47
2023-03-20T05:31:38.914Z,46.57
2023-03-20T05:32:38.963Z,54.79
2023-03-20T05:33:38.895Z,48.34
2023-03-20T05:34:38.897Z,46.73
2023-03-20T05:35:39.514Z,54.95
2023-03-20T05:36:38.863Z,51.40
2023-03-20T05:37:38.848Z,47.53
2023-03-20T05:38:38.854Z,48.02
2023-03-20T05:39:38.866Z,52.69
2023-03-20T05:40:38.826Z,47.05
2023-03-20T05:41:38.816Z,53.50
2023-03-20T05:42:38.813Z,53.01
2023-03-20T05:43:38.803Z,53.98
2023-03-20T05:44:38.879Z,47.86
2023-03-20T05:45:38.793Z,49.95
2023-03-20T05:46:39.735Z,49.95
2023-03-20T05:47:38.776Z,50.27
2023-03-20T05:48:38.760Z,50.92
2023-03-20T05:49:38.779Z,50.43
2023-03-20T05:50:38.759Z,51.88
2023-03-20T05:51:38.825Z,49.63
2023-03-20T05:52:38.729Z,48.34
2023-03-20T05:53:38.722Z,48.34
2023-03-20T05:54:38.773Z,51.40
2023-03-20T05:55:38.873Z,54.46
2023-03-20T05:56:38.766Z,49.31
2023-03-20T05:57:38.718Z,51.88
2023-03-20T05:58:38.690Z,50.76
2023-03-20T05:59:38.723Z,45.12
2023-03-20T06:00:38.679Z,44.47
2023-03-20T06:01:38.668Z,44.63
2023-03-20T06:02:38.684Z,53.98
2023-03-20T06:03:38.890Z,55.11
2023-03-20T06:04:38.674Z,52.69
2023-03-20T06:05:38.781Z,51.72
2023-03-20T06:06:38.629Z,51.40
2023-03-20T06:07:38.625Z,44.15
2023-03-20T06:08:38.628Z,49.47
2023-03-20T06:09:38.803Z,46.08
2023-03-20T06:10:38.622Z,45.12
2023-03-20T06:11:38.607Z,47.70
2023-03-20T06:12:38.641Z,50.92
2023-03-20T06:13:38.656Z,49.31
2023-03-20T06:14:38.617Z,51.88
2023-03-20T06:15:39.021Z,49.47
2023-03-20T06:16:38.568Z,53.01
2023-03-20T06:17:38.557Z,48.34
2023-03-20T06:18:38.544Z,48.18
2023-03-20T06:19:38.577Z,44.96
2023-03-20T06:20:38.530Z,47.05
2023-03-20T06:21:38.520Z,49.79
2023-03-20T06:22:38.518Z,50.76
2023-03-20T06:23:38.502Z,47.05
2023-03-20T06:24:38.537Z,46.08
2023-03-20T06:25:38.661Z,46.57
2023-03-20T06:26:38.477Z,49.79
2023-03-20T06:27:38.545Z,48.18
2023-03-20T06:28:38.462Z,45.44
2023-03-20T06:29:38.485Z,49.15
2023-03-20T06:30:38.463Z,47.86
2023-03-20T06:31:38.577Z,48.18
2023-03-20T06:32:38.532Z,46.08
2023-03-20T06:33:38.428Z,49.79
2023-03-20T06:34:38.443Z,47.86
2023-03-20T06:35:38.891Z,46.89
2023-03-20T06:36:38.398Z,49.95
2023-03-20T06:37:38.420Z,47.70
2023-03-20T06:38:38.393Z,47.37
2023-03-20T06:39:38.404Z,48.18
2023-03-20T06:40:39.383Z,48.02
2023-03-20T06:41:38.370Z,48.82
2023-03-20T06:42:38.404Z,50.11
2023-03-20T06:43:38.352Z,47.53
2023-03-20T06:44:38.386Z,47.37
2023-03-20T06:45:38.333Z,46.57
2023-03-20T06:46:38.414Z,46.08
2023-03-20T06:47:38.314Z,47.21
2023-03-20T06:48:38.315Z,45.60
2023-03-20T06:49:38.324Z,50.43
2023-03-20T06:50:38.293Z,45.28
2023-03-20T06:51:38.281Z,49.31
2023-03-20T06:52:38.281Z,48.82
2023-03-20T06:53:38.267Z,45.60
2023-03-20T06:54:38.332Z,46.08
2023-03-20T06:55:38.549Z,50.27
2023-03-20T06:56:38.306Z,49.79
2023-03-20T06:57:38.250Z,47.05
2023-03-20T06:58:38.240Z,49.79
2023-03-20T06:59:38.245Z,49.31
2023-03-20T07:00:38.213Z,48.82
2023-03-20T07:01:38.318Z,46.08
2023-03-20T07:02:38.187Z,47.86
2023-03-20T07:03:38.188Z,45.60
2023-03-20T07:04:38.246Z,53.50
2023-03-20T07:05:38.616Z,50.76
2023-03-20T07:06:38.191Z,47.86
2023-03-20T07:07:38.163Z,52.85
2023-03-20T07:08:38.157Z,53.17
2023-03-20T07:09:38.172Z,46.57
2023-03-20T07:10:38.141Z,48.34
2023-03-20T07:11:38.188Z,41.41
2023-03-20T07:12:38.132Z,50.11
2023-03-20T07:13:38.152Z,45.60
2023-03-20T07:14:38.149Z,53.01
2023-03-20T07:15:39.102Z,46.08
2023-03-20T07:16:38.185Z,52.53
2023-03-20T07:17:38.101Z,44.47
2023-03-20T07:18:38.084Z,51.24
2023-03-20T07:19:38.341Z,51.56
2023-03-20T07:20:39.070Z,47.05
2023-03-20T07:21:38.066Z,51.40
2023-03-20T07:22:38.056Z,54.14
2023-03-20T07:23:38.048Z,54.46
2023-03-20T07:24:38.058Z,55.27
2023-03-20T07:25:42.828Z,53.98
2023-03-20T07:26:40.024Z,52.85
2023-03-20T07:27:38.035Z,54.95
2023-03-20T07:28:38.009Z,46.89
2023-03-20T07:29:38.025Z,42.86
2023-03-20T07:30:37.993Z,49.47
2023-03-20T07:31:38.147Z,48.66
2023-03-20T07:32:38.170Z,43.34
2023-03-20T07:33:37.970Z,45.44
2023-03-20T07:34:38.304Z,52.21
2023-03-20T07:35:38.164Z,45.28
2023-03-20T07:36:37.949Z,46.08
2023-03-20T07:37:37.941Z,50.43
2023-03-20T07:38:38.020Z,46.08
2023-03-20T07:39:37.943Z,47.37
2023-03-20T07:40:37.912Z,49.63
2023-03-20T07:41:37.917Z,47.05
2023-03-20T07:42:37.899Z,48.02
2023-03-20T07:43:37.908Z,47.86
2023-03-20T07:44:37.917Z,50.27
2023-03-20T07:45:38.232Z,47.21
2023-03-20T07:46:37.862Z,50.11
2023-03-20T07:47:37.901Z,46.89
2023-03-20T07:48:37.879Z,49.15
2023-03-20T07:49:37.875Z,41.25
2023-03-20T07:50:37.850Z,44.63
2023-03-20T07:51:37.826Z,47.70
2023-03-20T07:52:37.831Z,47.53
2023-03-20T07:53:38.748Z,48.98
2023-03-20T07:54:37.885Z,52.85
2023-03-20T07:55:38.165Z,50.92
2023-03-20T07:56:37.794Z,48.02
2023-03-20T07:57:37.782Z,46.08
2023-03-20T07:58:37.773Z,42.54
2023-03-20T07:59:37.794Z,48.66
2023-03-20T08:00:37.760Z,46.08
2023-03-20T08:01:37.764Z,50.11
2023-03-20T08:02:37.814Z,52.85
2023-03-20T08:03:37.912Z,50.92
2023-03-20T08:04:37.760Z,50.60
2023-03-20T08:05:38.033Z,47.70
2023-03-20T08:06:37.724Z,49.31
2023-03-20T08:07:37.705Z,45.12
2023-03-20T08:08:37.697Z,45.92
2023-03-20T08:09:37.725Z,47.70
2023-03-20T08:10:37.718Z,52.05
2023-03-20T08:11:37.680Z,47.86
2023-03-20T08:12:37.679Z,49.31
2023-03-20T08:13:37.694Z,45.92
2023-03-20T08:14:37.696Z,46.25
2023-03-20T08:15:38.116Z,46.89
2023-03-20T08:16:37.796Z,49.15
2023-03-20T08:17:37.634Z,45.76
2023-03-20T08:18:37.672Z,50.92
2023-03-20T08:19:37.683Z,49.63
2023-03-20T08:20:37.629Z,46.57
2023-03-20T08:21:37.609Z,42.22
2023-03-20T08:22:37.593Z,47.53
2023-03-20T08:23:37.597Z,44.63
2023-03-20T08:24:37.631Z,42.70
2023-03-20T08:25:37.821Z,41.89
2023-03-20T08:26:37.564Z,48.34
2023-03-20T08:27:37.559Z,52.21
2023-03-20T08:28:47.214Z,44.79
2023-03-20T08:29:39.588Z,43.18
2023-03-20T08:30:37.561Z,43.99
2023-03-20T08:31:37.535Z,46.89
2023-03-20T08:32:37.534Z,47.53
2023-03-20T08:33:37.538Z,50.27
2023-03-20T08:34:37.550Z,43.02
2023-03-20T08:35:37.577Z,44.47
2023-03-20T08:36:37.485Z,48.50
2023-03-20T08:37:37.482Z,46.25
2023-03-20T08:38:37.472Z,42.06
2023-03-20T08:39:37.539Z,42.86
2023-03-20T08:40:37.506Z,48.02
2023-03-20T08:41:37.454Z,50.11
2023-03-20T08:42:37.451Z,51.24
2023-03-20T08:43:37.474Z,49.79
2023-03-20T08:44:37.540Z,50.27
2023-03-20T08:45:37.728Z,48.34
2023-03-20T08:46:37.449Z,45.28
2023-03-20T08:47:39.587Z,44.63
2023-03-20T08:48:37.400Z,48.18
2023-03-20T08:49:37.393Z,44.79
2023-03-20T08:50:37.417Z,47.53
2023-03-20T08:51:37.385Z,45.92
2023-03-20T08:52:37.366Z,44.96
2023-03-20T08:53:37.355Z,45.60
2023-03-20T08:54:37.568Z,49.79
2023-03-20T08:55:37.609Z,45.76
2023-03-20T08:56:37.341Z,43.18
2023-03-20T08:57:37.337Z,43.99
2023-03-20T08:58:37.336Z,44.79
2023-03-20T08:59:37.315Z,41.89
2023-03-20T09:00:37.339Z,44.96
2023-03-20T09:01:48.849Z,47.05
2023-03-20T09:02:39.437Z,47.05
2023-03-20T09:03:37.289Z,51.40
2023-03-20T09:04:38.275Z,47.70
2023-03-20T09:05:37.502Z,48.34
2023-03-20T09:06:37.277Z,46.08
2023-03-20T09:07:37.260Z,45.12
2023-03-20T09:08:37.253Z,48.98
2023-03-20T09:09:37.289Z,44.47
2023-03-20T09:10:37.324Z,43.83
2023-03-20T09:11:37.236Z,46.08
2023-03-20T09:12:37.232Z,51.56
2023-03-20T09:13:37.223Z,46.57
2023-03-20T09:14:37.292Z,50.92
2023-03-20T09:15:37.601Z,45.60
2023-03-20T09:16:37.225Z,46.41
2023-03-20T09:17:37.195Z,40.93
2023-03-20T09:18:37.167Z,41.89
2023-03-20T09:19:37.170Z,43.67
2023-03-20T09:20:37.580Z,43.67
2023-03-20T09:21:37.180Z,48.66
2023-03-20T09:22:37.163Z,46.25
2023-03-20T09:23:37.133Z,48.82
2023-03-20T09:24:37.130Z,46.89
2023-03-20T09:25:37.429Z,47.05
2023-03-20T09:26:37.170Z,42.70
2023-03-20T09:27:37.137Z,41.25
2023-03-20T09:28:37.110Z,45.92
2023-03-20T09:29:37.093Z,44.63
2023-03-20T09:30:37.448Z,45.76
2023-03-20T09:31:37.123Z,47.05
2023-03-20T09:32:37.113Z,51.08
2023-03-20T09:33:37.063Z,44.63
2023-03-20T09:34:37.071Z,52.21
2023-03-20T09:35:37.112Z,45.12
2023-03-20T09:36:37.040Z,45.28
2023-03-20T09:37:37.029Z,48.50
2023-03-20T09:38:37.030Z,47.53
2023-03-20T09:39:37.100Z,44.96
2023-03-20T09:40:37.343Z,42.06
2023-03-20T09:41:52.844Z,43.18
2023-03-20T09:42:38.984Z,48.82
2023-03-20T09:43:36.999Z,41.89
2023-03-20T09:44:36.981Z,45.92
2023-03-20T09:45:36.997Z,45.28
2023-03-20T09:46:37.038Z,49.63
2023-03-20T09:47:36.956Z,49.79
2023-03-20T09:48:36.957Z,45.76
2023-03-20T09:49:36.944Z,46.08
2023-03-20T09:50:37.492Z,45.12
2023-03-20T09:51:36.928Z,49.47
2023-03-20T09:52:36.926Z,44.31
2023-03-20T09:53:36.933Z,45.76
2023-03-20T09:54:52.778Z,45.76
2023-03-20T09:55:39.454Z,46.08
2023-03-20T09:56:36.896Z,49.95
2023-03-20T09:57:36.885Z,43.18
2023-03-20T09:58:36.882Z,47.05
2023-03-20T09:59:36.869Z,48.34
2023-03-20T10:00:37.082Z,46.08
2023-03-20T10:01:39.594Z,49.15
2023-03-20T10:02:37.833Z,49.15
2023-03-20T10:03:36.844Z,44.47
2023-03-20T10:04:36.862Z,42.06
2023-03-20T10:05:37.150Z,45.12
2023-03-20T10:06:36.835Z,47.37
2023-03-20T10:07:36.810Z,47.05
2023-03-20T10:08:36.794Z,44.15
2023-03-20T10:09:36.823Z,45.44
2023-03-20T10:10:37.091Z,45.28
2023-03-20T10:11:36.778Z,50.11
2023-03-20T10:12:36.771Z,48.82
2023-03-20T10:13:36.772Z,46.41
2023-03-20T10:14:36.772Z,47.86
2023-03-20T10:15:36.763Z,51.88
2023-03-20T10:16:37.813Z,43.18
2023-03-20T10:17:36.736Z,49.79
2023-03-20T10:18:36.760Z,50.11
2023-03-20T10:19:36.794Z,46.57
2023-03-20T10:20:37.045Z,48.02
2023-03-20T10:21:36.703Z,50.60
2023-03-20T10:22:36.738Z,46.41
2023-03-20T10:23:36.704Z,43.83
2023-03-20T10:24:36.673Z,46.25
2023-03-20T10:25:36.688Z,45.92
2023-03-20T10:26:36.656Z,43.18
2023-03-20T10:27:36.654Z,41.41
2023-03-20T10:28:36.649Z,49.31
2023-03-20T10:29:36.695Z,45.44
2023-03-20T10:30:36.965Z,45.12
2023-03-20T10:31:36.703Z,45.60
2023-03-20T10:32:36.668Z,49.47
2023-03-20T10:33:36.607Z,46.08
2023-03-20T10:34:36.697Z,52.85
2023-03-20T10:35:36.642Z,46.08
2023-03-20T10:36:36.596Z,46.57
2023-03-20T10:37:36.579Z,41.89
2023-03-20T10:38:36.563Z,45.44
2023-03-20T10:39:36.556Z,44.15
2023-03-20T10:40:37.029Z,49.15
2023-03-20T10:41:36.575Z,52.21
2023-03-20T10:42:36.537Z,45.44
2023-03-20T10:43:39.061Z,43.02
2023-03-20T10:44:37.565Z,51.88
2023-03-20T10:45:36.508Z,47.86
2023-03-20T10:46:36.559Z,44.63
2023-03-20T10:47:36.580Z,42.38
2023-03-20T10:48:36.517Z,42.70
2023-03-20T10:49:36.523Z,43.02
2023-03-20T10:50:36.738Z,48.34
2023-03-20T10:51:36.510Z,45.12
2023-03-20T10:52:37.244Z,44.15
2023-03-20T10:53:36.462Z,46.41
2023-03-20T10:54:36.455Z,42.54
2023-03-20T10:55:36.442Z,43.99
2023-03-20T10:56:36.463Z,50.92
2023-03-20T10:57:36.430Z,44.79
2023-03-20T10:58:36.515Z,43.18
2023-03-20T10:59:36.424Z,44.15
2023-03-20T11:00:36.550Z,47.86
2023-03-20T11:01:36.525Z,47.37
2023-03-20T11:02:36.372Z,45.76
2023-03-20T11:03:36.370Z,42.38
2023-03-20T11:04:36.466Z,47.86
2023-03-20T11:05:36.361Z,51.08
2023-03-20T11:06:36.384Z,48.50
2023-03-20T11:07:36.344Z,46.73
2023-03-20T11:08:36.341Z,47.86
2023-03-20T11:09:36.327Z,43.02
2023-03-20T11:10:36.702Z,41.89
2023-03-20T11:11:36.376Z,43.83
2023-03-20T11:12:36.323Z,45.60
2023-03-20T11:13:36.322Z,47.70
2023-03-20T11:14:36.291Z,48.66
2023-03-20T11:15:36.289Z,45.44
2023-03-20T11:16:36.395Z,44.15
2023-03-20T11:17:36.268Z,51.72
2023-03-20T11:18:36.264Z,46.57
2023-03-20T11:19:36.260Z,45.60
2023-03-20T11:20:36.575Z,50.60
2023-03-20T11:21:36.279Z,50.76
2023-03-20T11:22:36.238Z,51.08
2023-03-20T11:23:36.240Z,47.21
2023-03-20T11:24:36.217Z,50.92
2023-03-20T11:25:36.213Z,46.25
2023-03-20T11:26:36.236Z,45.28
2023-03-20T11:27:36.221Z,48.66
2023-03-20T11:28:36.193Z,47.05
2023-03-20T11:29:36.169Z,46.08
2023-03-20T11:30:36.479Z,47.05
2023-03-20T11:31:36.457Z,45.76
2023-03-20T11:32:36.271Z,49.31
2023-03-20T11:33:36.151Z,47.21
2023-03-20T11:34:36.132Z,47.05
2023-03-20T11:35:36.211Z,43.02
2023-03-20T11:36:36.141Z,44.15
2023-03-20T11:37:36.170Z,48.34
2023-03-20T11:38:36.130Z,45.28
2023-03-20T11:39:36.141Z,48.34
2023-03-20T11:40:36.403Z,41.89
2023-03-20T11:41:36.196Z,43.51
2023-03-20T11:42:36.069Z,44.31
2023-03-20T11:43:36.061Z,48.98
2023-03-20T11:44:36.100Z,46.25
2023-03-20T11:45:36.118Z,50.92
2023-03-20T11:46:36.068Z,50.60
2023-03-20T11:47:36.078Z,50.92
2023-03-20T11:48:36.033Z,48.82
2023-03-20T11:49:36.020Z,47.86
2023-03-20T11:50:36.302Z,46.25
2023-03-20T11:51:36.007Z,43.18
2023-03-20T11:52:36.029Z,50.92
2023-03-20T11:53:36.032Z,51.88
2023-03-20T11:54:35.989Z,43.51
2023-03-20T11:55:35.985Z,44.15
2023-03-20T11:56:36.008Z,46.25
2023-03-20T11:57:36.043Z,46.73
2023-03-20T11:58:35.967Z,46.89
2023-03-20T11:59:35.962Z,46.57
2023-03-20T12:00:36.319Z,47.86
2023-03-20T12:01:35.950Z,44.96
2023-03-20T12:02:36.124Z,48.18
2023-03-20T12:03:36.006Z,46.25
2023-03-20T12:04:35.927Z,50.11
2023-03-20T12:05:35.924Z,46.73
2023-03-20T12:06:35.910Z,41.25
2023-03-20T12:07:35.931Z,43.83
2023-03-20T12:08:36.946Z,52.05
2023-03-20T12:09:35.889Z,47.70
2023-03-20T12:10:36.163Z,49.63
2023-03-20T12:11:35.864Z,47.70
2023-03-20T12:12:35.928Z,54.95
2023-03-20T12:13:35.853Z,53.98
2023-03-20T12:14:35.878Z,55.91
2023-03-20T12:15:35.882Z,55.75
2023-03-20T12:16:35.837Z,55.43
2023-03-20T12:17:35.854Z,49.95
2023-03-20T12:18:35.797Z,45.44
2023-03-20T12:19:35.805Z,43.99
2023-03-20T12:20:35.998Z,46.73
2023-03-20T12:21:36.814Z,43.02
2023-03-20T12:22:35.812Z,47.05
2023-03-20T12:23:36.784Z,49.79
2023-03-20T12:24:35.794Z,50.92
2023-03-20T12:25:35.774Z,44.31
2023-03-20T12:26:35.789Z,44.15
2023-03-20T12:27:35.815Z,45.60
2023-03-20T12:28:35.761Z,48.50
2023-03-20T12:29:35.734Z,47.05
2023-03-20T12:30:35.915Z,47.37
2023-03-20T12:31:35.795Z,45.12
2023-03-20T12:32:35.818Z,50.60
2023-03-20T12:33:35.710Z,45.60
2023-03-20T12:34:35.712Z,43.02
2023-03-20T12:35:35.714Z,49.63
2023-03-20T12:36:35.683Z,46.73
2023-03-20T12:37:35.702Z,48.02
2023-03-20T12:38:35.680Z,47.86
2023-03-20T12:39:35.685Z,44.31
2023-03-20T12:40:35.827Z,50.11
2023-03-20T12:41:35.659Z,46.25
2023-03-20T12:42:35.674Z,43.67
2023-03-20T12:43:35.639Z,46.25
2023-03-20T12:44:35.632Z,43.99
2023-03-20T12:45:35.627Z,43.67
2023-03-20T12:46:35.625Z,44.31
2023-03-20T12:47:35.648Z,47.05
2023-03-20T12:48:35.603Z,50.27
2023-03-20T12:49:35.589Z,49.31
2023-03-20T12:50:35.874Z,48.34
2023-03-20T12:51:35.577Z,43.34
2023-03-20T12:52:35.615Z,44.47